CheckWX is a tool to help pilots better visualize weather data.  It is not intended as a substitute for an official pre-flight weather briefing.

02:30:49 UTC

KQVF METAR
Manda Bay
Manda Bay, Kenya
Current

45 mins ago

KQVF 230146Z AUTO 00000KT 9999 SCT016 BKN020 26/25 A2981 RMK AO2 SLP097 WND DATA ESTMD
Observed
Nov-23 @ 01:46 UTC
Visibility
10,000+ meters
Flight Rules
MVFR
Cloud Levels
  • Scattered at 1,600' AGL
  • Broken at 2,000' AGL
Temperature
26°C / 79°F
Dewpoint
25°C / 77°F
Humidity
94%
Altimeter
29.81" Hg
Pressure
1009.52 hPa
Previous

2 hours ago

KQVF 230056Z AUTO 00000KT 9999 SCT016 BKN020 27/25 A2980 RMK AO2 SLP094 WND DATA ESTMD T02660249
Observed
Nov-23 @ 00:56 UTC
Visibility
10,000+ meters
Flight Rules
MVFR
Cloud Levels
  • Scattered at 1,600' AGL
  • Broken at 2,000' AGL
Temperature
27°C / 81°F
Dewpoint
25°C / 77°F
Heat Index
31°C / 88°F
Humidity
89%
Altimeter
29.8" Hg
Pressure
1009.12 hPa
Previous

2 hours ago

KQVF 230040Z AUTO 00000KT 9999 SCT016 BKN019 27/25 A2980 RMK AO2 CIG 019V025 SLP094 WND DATA ESTMD
Observed
Nov-23 @ 00:40 UTC
Visibility
10,000+ meters
Flight Rules
MVFR
Cloud Levels
  • Scattered at 1,600' AGL
  • Broken at 1,900' AGL
Temperature
27°C / 81°F
Dewpoint
25°C / 77°F
Heat Index
31°C / 88°F
Humidity
89%
Altimeter
29.8" Hg
Pressure
1009.12 hPa